Bevent, Wisconsin
Current Conditions -  °F | °C
As of 7:50 PM on Friday 28 Nov 2014 (Local Time) from KCWA Reporting Station
Broken Clouds Broken Clouds  
Wind Chill:   Ceiling: 9000
Heat Index: 18°   Visibility: 10mi
Dew Point: 18°   Wind: 6mph
Humidity: 100%   Direction: 90°E
Pressure: 29.87"   Gusts: NA
Location:  44.8205°N, 89.392°W
Report Text: KCWA 290150Z 09005KT 10SM BKN090 M08/M08 A2987
Loading
Personal Weather Stations






























Interactive Weather Map New forecast layout! Learn more

10-Day Weather Forecast

Advertisements
Track Severe Weather on mobile